sensor_id;sensor_type;location;lat;lon;timestamp;temperature;humidity
4056;DHT22;2043;52.184;8.690;2023-08-06T00:01:34;16.00;99.90
4056;DHT22;2043;52.184;8.690;2023-08-06T00:04:01;16.00;99.90
4056;DHT22;2043;52.184;8.690;2023-08-06T00:06:28;16.00;99.90
4056;DHT22;2043;52.184;8.690;2023-08-06T00:08:54;16.00;99.90
4056;DHT22;2043;52.184;8.690;2023-08-06T00:11:21;16.00;99.90
4056;DHT22;2043;52.184;8.690;2023-08-06T00:13:48;15.90;99.90
4056;DHT22;2043;52.184;8.690;2023-08-06T00:16:15;15.90;99.90
4056;DHT22;2043;52.184;8.690;2023-08-06T00:18:42;15.90;99.90
4056;DHT22;2043;52.184;8.690;2023-08-06T00:21:08;15.90;99.90
4056;DHT22;2043;52.184;8.690;2023-08-06T00:23:35;15.90;99.90
4056;DHT22;2043;52.184;8.690;2023-08-06T00:26:02;15.90;99.90
4056;DHT22;2043;52.184;8.690;2023-08-06T00:28:29;15.90;99.90
4056;DHT22;2043;52.184;8.690;2023-08-06T00:30:56;15.80;99.90
4056;DHT22;2043;52.184;8.690;2023-08-06T00:33:23;15.80;99.90
4056;DHT22;2043;52.184;8.690;2023-08-06T00:35:51;15.70;99.90
4056;DHT22;2043;52.184;8.690;2023-08-06T00:38:17;15.80;99.90
4056;DHT22;2043;52.184;8.690;2023-08-06T00:40:44;15.80;99.90
4056;DHT22;2043;52.184;8.690;2023-08-06T00:43:11;15.80;99.90
4056;DHT22;2043;52.184;8.690;2023-08-06T00:45:38;15.80;99.90
4056;DHT22;2043;52.184;8.690;2023-08-06T00:48:05;15.70;99.90
4056;DHT22;2043;52.184;8.690;2023-08-06T00:50:33;15.80;99.90
4056;DHT22;2043;52.184;8.690;2023-08-06T00:53:01;15.80;99.90
4056;DHT22;2043;52.184;8.690;2023-08-06T00:55:29;15.80;99.90
4056;DHT22;2043;52.184;8.690;2023-08-06T00:57:56;15.80;99.90
4056;DHT22;2043;52.184;8.690;2023-08-06T01:00:24;15.80;99.90
4056;DHT22;2043;52.184;8.690;2023-08-06T01:02:52;15.80;99.90
4056;DHT22;2043;52.184;8.690;2023-08-06T01:05:20;15.80;99.90
4056;DHT22;2043;52.184;8.690;2023-08-06T01:15:55;15.90;99.90
4056;DHT22;2043;52.184;8.690;2023-08-06T01:18:25;15.90;99.90
4056;DHT22;2043;52.184;8.690;2023-08-06T01:20:52;15.80;99.90
4056;DHT22;2043;52.184;8.690;2023-08-06T01:23:19;15.90;99.90
4056;DHT22;2043;52.184;8.690;2023-08-06T01:28:32;15.90;99.90
4056;DHT22;2043;52.184;8.690;2023-08-06T01:31:02;15.90;99.90
4056;DHT22;2043;52.184;8.690;2023-08-06T01:33:32;15.90;99.90
4056;DHT22;2043;52.184;8.690;2023-08-06T01:36:01;15.80;99.90
4056;DHT22;2043;52.184;8.690;2023-08-06T01:38:29;15.80;99.90
4056;DHT22;2043;52.184;8.690;2023-08-06T01:40:55;15.80;99.90
4056;DHT22;2043;52.184;8.690;2023-08-06T01:43:22;15.70;99.90
4056;DHT22;2043;52.184;8.690;2023-08-06T01:45:49;15.70;99.90
4056;DHT22;2043;52.184;8.690;2023-08-06T01:48:16;15.70;99.90
4056;DHT22;2043;52.184;8.690;2023-08-06T01:50:42;15.70;99.90
4056;DHT22;2043;52.184;8.690;2023-08-06T01:53:10;15.70;99.90
4056;DHT22;2043;52.184;8.690;2023-08-06T01:55:37;15.70;99.90
4056;DHT22;2043;52.184;8.690;2023-08-06T01:58:03;15.80;99.90
4056;DHT22;2043;52.184;8.690;2023-08-06T02:00:30;15.80;99.90
4056;DHT22;2043;52.184;8.690;2023-08-06T02:02:57;15.80;99.90
4056;DHT22;2043;52.184;8.690;2023-08-06T02:05:24;15.70;99.90
4056;DHT22;2043;52.184;8.690;2023-08-06T02:07:50;15.70;99.90
4056;DHT22;2043;52.184;8.690;2023-08-06T02:10:17;15.70;99.90
4056;DHT22;2043;52.184;8.690;2023-08-06T02:12:44;15.70;99.90
4056;DHT22;2043;52.184;8.690;2023-08-06T02:15:11;15.70;99.90
4056;DHT22;2043;52.184;8.690;2023-08-06T02:17:37;15.70;99.90
4056;DHT22;2043;52.184;8.690;2023-08-06T02:20:05;15.70;99.90
4056;DHT22;2043;52.184;8.690;2023-08-06T02:22:32;15.70;99.90
4056;DHT22;2043;52.184;8.690;2023-08-06T02:24:59;15.70;99.90
4056;DHT22;2043;52.184;8.690;2023-08-06T02:27:26;15.60;99.90
4056;DHT22;2043;52.184;8.690;2023-08-06T02:29:53;15.60;99.90
4056;DHT22;2043;52.184;8.690;2023-08-06T02:32:20;15.70;99.90
4056;DHT22;2043;52.184;8.690;2023-08-06T02:34:46;15.70;99.90
4056;DHT22;2043;52.184;8.690;2023-08-06T02:37:13;15.70;99.90
4056;DHT22;2043;52.184;8.690;2023-08-06T02:39:40;15.70;99.90
4056;DHT22;2043;52.184;8.690;2023-08-06T02:42:07;15.70;99.90
4056;DHT22;2043;52.184;8.690;2023-08-06T02:44:35;15.70;99.90
4056;DHT22;2043;52.184;8.690;2023-08-06T02:47:02;15.70;99.90
4056;DHT22;2043;52.184;8.690;2023-08-06T02:49:28;15.60;99.90
4056;DHT22;2043;52.184;8.690;2023-08-06T02:51:55;15.60;99.90
4056;DHT22;2043;52.184;8.690;2023-08-06T02:54:22;15.60;99.90
4056;DHT22;2043;52.184;8.690;2023-08-06T02:56:49;15.40;99.90
4056;DHT22;2043;52.184;8.690;2023-08-06T02:59:15;15.40;99.90
4056;DHT22;2043;52.184;8.690;2023-08-06T03:01:42;15.30;99.90
4056;DHT22;2043;52.184;8.690;2023-08-06T03:04:09;15.30;99.90
4056;DHT22;2043;52.184;8.690;2023-08-06T03:06:36;15.30;99.90
4056;DHT22;2043;52.184;8.690;2023-08-06T03:09:02;15.30;99.90
4056;DHT22;2043;52.184;8.690;2023-08-06T03:13:56;15.20;99.90
4056;DHT22;2043;52.184;8.690;2023-08-06T03:16:23;15.20;99.90
4056;DHT22;2043;52.184;8.690;2023-08-06T03:18:50;15.10;99.90
4056;DHT22;2043;52.184;8.690;2023-08-06T03:21:17;15.10;99.90
4056;DHT22;2043;52.184;8.690;2023-08-06T03:23:47;15.10;99.90
4056;DHT22;2043;52.184;8.690;2023-08-06T03:26:14;15.00;99.90
4056;DHT22;2043;52.184;8.690;2023-08-06T03:28:41;15.00;99.90
4056;DHT22;2043;52.184;8.690;2023-08-06T03:31:08;15.00;99.90
4056;DHT22;2043;52.184;8.690;2023-08-06T03:33:35;15.00;99.90
4056;DHT22;2043;52.184;8.690;2023-08-06T03:36:01;15.00;99.90
4056;DHT22;2043;52.184;8.690;2023-08-06T03:40:56;15.00;99.90
4056;DHT22;2043;52.184;8.690;2023-08-06T03:43:22;14.90;99.90
4056;DHT22;2043;52.184;8.690;2023-08-06T03:45:49;14.90;99.90
4056;DHT22;2043;52.184;8.690;2023-08-06T03:48:16;14.90;99.90
4056;DHT22;2043;52.184;8.690;2023-08-06T03:50:42;14.80;99.90
4056;DHT22;2043;52.184;8.690;2023-08-06T03:53:09;14.90;99.90
4056;DHT22;2043;52.184;8.690;2023-08-06T03:55:36;14.80;99.90
4056;DHT22;2043;52.184;8.690;2023-08-06T03:58:03;14.80;99.90
4056;DHT22;2043;52.184;8.690;2023-08-06T04:00:29;14.80;99.90
4056;DHT22;2043;52.184;8.690;2023-08-06T04:02:56;14.80;99.90
4056;DHT22;2043;52.184;8.690;2023-08-06T04:05:23;14.80;99.90
4056;DHT22;2043;52.184;8.690;2023-08-06T04:07:50;14.80;99.90
4056;DHT22;2043;52.184;8.690;2023-08-06T04:10:16;14.80;99.90
4056;DHT22;2043;52.184;8.690;2023-08-06T04:12:43;14.70;99.90
4056;DHT22;2043;52.184;8.690;2023-08-06T04:17:37;14.70;99.90
4056;DHT22;2043;52.184;8.690;2023-08-06T04:20:04;14.80;99.90
4056;DHT22;2043;52.184;8.690;2023-08-06T04:22:31;14.70;99.90
4056;DHT22;2043;52.184;8.690;2023-08-06T04:24:58;14.70;99.90
4056;DHT22;2043;52.184;8.690;2023-08-06T04:27:25;14.80;99.90
4056;DHT22;2043;52.184;8.690;2023-08-06T04:29:52;14.80;99.90
4056;DHT22;2043;52.184;8.690;2023-08-06T04:32:18;14.80;99.90
4056;DHT22;2043;52.184;8.690;2023-08-06T04:34:46;14.80;99.90
4056;DHT22;2043;52.184;8.690;2023-08-06T04:37:13;14.80;99.90
4056;DHT22;2043;52.184;8.690;2023-08-06T04:39:40;14.70;99.90
4056;DHT22;2043;52.184;8.690;2023-08-06T04:42:06;14.70;99.90
4056;DHT22;2043;52.184;8.690;2023-08-06T04:44:33;14.70;99.90
4056;DHT22;2043;52.184;8.690;2023-08-06T04:47:00;14.70;99.90
4056;DHT22;2043;52.184;8.690;2023-08-06T04:49:27;14.70;99.90
4056;DHT22;2043;52.184;8.690;2023-08-06T04:51:53;14.70;99.90
4056;DHT22;2043;52.184;8.690;2023-08-06T04:54:21;14.70;99.90
4056;DHT22;2043;52.184;8.690;2023-08-06T04:56:47;14.70;99.90
4056;DHT22;2043;52.184;8.690;2023-08-06T04:59:14;14.80;99.90
4056;DHT22;2043;52.184;8.690;2023-08-06T05:01:41;14.90;99.90
4056;DHT22;2043;52.184;8.690;2023-08-06T05:04:08;14.90;99.90
4056;DHT22;2043;52.184;8.690;2023-08-06T05:06:34;14.90;99.90
4056;DHT22;2043;52.184;8.690;2023-08-06T05:09:01;14.80;99.90
4056;DHT22;2043;52.184;8.690;2023-08-06T05:11:28;14.80;99.90
4056;DHT22;2043;52.184;8.690;2023-08-06T05:13:55;14.80;99.90
4056;DHT22;2043;52.184;8.690;2023-08-06T05:16:22;14.90;99.90
4056;DHT22;2043;52.184;8.690;2023-08-06T05:18:48;15.00;99.90
4056;DHT22;2043;52.184;8.690;2023-08-06T05:21:15;15.10;99.90
4056;DHT22;2043;52.184;8.690;2023-08-06T05:23:43;15.20;99.90
4056;DHT22;2043;52.184;8.690;2023-08-06T05:26:09;15.20;99.90
4056;DHT22;2043;52.184;8.690;2023-08-06T05:28:36;15.20;99.90
4056;DHT22;2043;52.184;8.690;2023-08-06T05:31:04;15.20;99.90
4056;DHT22;2043;52.184;8.690;2023-08-06T05:33:31;15.20;99.90
4056;DHT22;2043;52.184;8.690;2023-08-06T05:35:58;15.20;99.90
4056;DHT22;2043;52.184;8.690;2023-08-06T05:38:25;15.30;99.90
4056;DHT22;2043;52.184;8.690;2023-08-06T05:40:52;15.30;99.90
4056;DHT22;2043;52.184;8.690;2023-08-06T05:43:18;15.60;99.90
4056;DHT22;2043;52.184;8.690;2023-08-06T05:45:46;15.70;99.90
4056;DHT22;2043;52.184;8.690;2023-08-06T05:48:13;15.70;99.90
4056;DHT22;2043;52.184;8.690;2023-08-06T05:50:39;15.80;99.90
4056;DHT22;2043;52.184;8.690;2023-08-06T05:53:06;15.90;99.90
4056;DHT22;2043;52.184;8.690;2023-08-06T05:55:34;15.90;99.90
4056;DHT22;2043;52.184;8.690;2023-08-06T05:58:00;16.00;99.90
4056;DHT22;2043;52.184;8.690;2023-08-06T06:00:27;16.10;99.90
4056;DHT22;2043;52.184;8.690;2023-08-06T06:02:54;16.20;99.90
4056;DHT22;2043;52.184;8.690;2023-08-06T06:07:48;16.20;99.90
4056;DHT22;2043;52.184;8.690;2023-08-06T06:10:15;16.40;99.90
4056;DHT22;2043;52.184;8.690;2023-08-06T06:12:41;16.60;99.90
4056;DHT22;2043;52.184;8.690;2023-08-06T06:15:08;16.70;99.90
4056;DHT22;2043;52.184;8.690;2023-08-06T06:20:03;16.90;99.90
4056;DHT22;2043;52.184;8.690;2023-08-06T06:22:30;17.00;99.90
4056;DHT22;2043;52.184;8.690;2023-08-06T06:24:57;17.10;99.90
4056;DHT22;2043;52.184;8.690;2023-08-06T06:27:24;17.30;99.90
4056;DHT22;2043;52.184;8.690;2023-08-06T06:29:51;17.50;99.90
4056;DHT22;2043;52.184;8.690;2023-08-06T06:32:19;17.70;99.90
4056;DHT22;2043;52.184;8.690;2023-08-06T06:34:45;18.00;99.90
4056;DHT22;2043;52.184;8.690;2023-08-06T06:37:12;18.30;99.90
4056;DHT22;2043;52.184;8.690;2023-08-06T06:39:39;18.50;99.90
4056;DHT22;2043;52.184;8.690;2023-08-06T06:42:06;18.50;99.90
4056;DHT22;2043;52.184;8.690;2023-08-06T06:44:32;18.20;99.90
4056;DHT22;2043;52.184;8.690;2023-08-06T06:46:59;18.20;99.90
4056;DHT22;2043;52.184;8.690;2023-08-06T06:49:26;18.20;99.90
4056;DHT22;2043;52.184;8.690;2023-08-06T06:51:53;18.10;99.90
4056;DHT22;2043;52.184;8.690;2023-08-06T06:54:20;18.30;99.90
4056;DHT22;2043;52.184;8.690;2023-08-06T06:56:47;18.30;99.90
4056;DHT22;2043;52.184;8.690;2023-08-06T06:59:13;18.80;99.90
4056;DHT22;2043;52.184;8.690;2023-08-06T07:01:40;18.90;99.90
4056;DHT22;2043;52.184;8.690;2023-08-06T07:04:07;19.00;99.90
4056;DHT22;2043;52.184;8.690;2023-08-06T07:06:33;19.10;99.90
4056;DHT22;2043;52.184;8.690;2023-08-06T07:09:00;19.10;99.90
4056;DHT22;2043;52.184;8.690;2023-08-06T07:11:27;19.50;99.90
4056;DHT22;2043;52.184;8.690;2023-08-06T07:13:58;19.40;99.90
4056;DHT22;2043;52.184;8.690;2023-08-06T07:16:25;19.40;99.90
4056;DHT22;2043;52.184;8.690;2023-08-06T07:18:53;19.40;99.90
4056;DHT22;2043;52.184;8.690;2023-08-06T07:21:21;19.40;99.90
4056;DHT22;2043;52.184;8.690;2023-08-06T07:23:48;19.70;99.90
4056;DHT22;2043;52.184;8.690;2023-08-06T07:26:16;20.00;99.90
4056;DHT22;2043;52.184;8.690;2023-08-06T07:28:43;20.50;99.80
4056;DHT22;2043;52.184;8.690;2023-08-06T07:31:11;20.60;98.70
4056;DHT22;2043;52.184;8.690;2023-08-06T07:33:38;20.50;98.60
4056;DHT22;2043;52.184;8.690;2023-08-06T07:36:13;20.70;95.50
4056;DHT22;2043;52.184;8.690;2023-08-06T07:38:40;20.70;95.40
4056;DHT22;2043;52.184;8.690;2023-08-06T07:41:07;21.00;94.00
4056;DHT22;2043;52.184;8.690;2023-08-06T07:43:34;20.90;93.70
4056;DHT22;2043;52.184;8.690;2023-08-06T07:46:02;20.90;93.70
4056;DHT22;2043;52.184;8.690;2023-08-06T07:48:29;20.60;94.40
4056;DHT22;2043;52.184;8.690;2023-08-06T07:50:56;20.90;94.50
4056;DHT22;2043;52.184;8.690;2023-08-06T07:53:24;21.40;94.60
4056;DHT22;2043;52.184;8.690;2023-08-06T07:55:54;21.90;93.10
4056;DHT22;2043;52.184;8.690;2023-08-06T07:58:21;22.10;93.20
4056;DHT22;2043;52.184;8.690;2023-08-06T08:00:48;22.00;91.50
4056;DHT22;2043;52.184;8.690;2023-08-06T08:03:15;22.10;91.80
4056;DHT22;2043;52.184;8.690;2023-08-06T08:05:43;22.20;91.30
4056;DHT22;2043;52.184;8.690;2023-08-06T08:08:10;22.30;92.50
4056;DHT22;2043;52.184;8.690;2023-08-06T08:10:38;22.10;91.00
4056;DHT22;2043;52.184;8.690;2023-08-06T08:13:05;21.80;92.10
4056;DHT22;2043;52.184;8.690;2023-08-06T08:15:32;21.40;93.20
4056;DHT22;2043;52.184;8.690;2023-08-06T08:17:59;21.20;92.80
4056;DHT22;2043;52.184;8.690;2023-08-06T08:20:27;21.00;93.10
4056;DHT22;2043;52.184;8.690;2023-08-06T08:22:59;21.00;93.30
4056;DHT22;2043;52.184;8.690;2023-08-06T08:25:27;21.20;92.50
4056;DHT22;2043;52.184;8.690;2023-08-06T08:27:57;21.30;91.80
4056;DHT22;2043;52.184;8.690;2023-08-06T08:30:24;21.80;91.50
4056;DHT22;2043;52.184;8.690;2023-08-06T08:32:52;22.50;89.50
4056;DHT22;2043;52.184;8.690;2023-08-06T08:35:19;22.40;89.10
4056;DHT22;2043;52.184;8.690;2023-08-06T08:37:46;22.20;90.90
4056;DHT22;2043;52.184;8.690;2023-08-06T08:40:14;22.00;91.50
4056;DHT22;2043;52.184;8.690;2023-08-06T08:42:42;21.60;90.70
4056;DHT22;2043;52.184;8.690;2023-08-06T08:45:15;21.30;91.00
4056;DHT22;2043;52.184;8.690;2023-08-06T08:47:44;21.00;93.80
4056;DHT22;2043;52.184;8.690;2023-08-06T08:50:13;21.00;93.80
4056;DHT22;2043;52.184;8.690;2023-08-06T08:52:41;21.00;93.10
4056;DHT22;2043;52.184;8.690;2023-08-06T08:55:10;21.00;92.50
4056;DHT22;2043;52.184;8.690;2023-08-06T08:57:36;21.20;92.30
4056;DHT22;2043;52.184;8.690;2023-08-06T09:00:04;21.30;93.10
4056;DHT22;2043;52.184;8.690;2023-08-06T09:02:33;21.30;93.10
4056;DHT22;2043;52.184;8.690;2023-08-06T09:05:01;21.20;92.50
4056;DHT22;2043;52.184;8.690;2023-08-06T09:07:37;21.20;91.10
4056;DHT22;2043;52.184;8.690;2023-08-06T09:10:07;21.10;91.50
4056;DHT22;2043;52.184;8.690;2023-08-06T09:12:36;21.00;91.30
4056;DHT22;2043;52.184;8.690;2023-08-06T09:15:03;21.00;92.30
4056;DHT22;2043;52.184;8.690;2023-08-06T09:17:30;20.90;94.40
4056;DHT22;2043;52.184;8.690;2023-08-06T09:19:57;20.80;92.70
4056;DHT22;2043;52.184;8.690;2023-08-06T09:22:24;20.80;92.80
4056;DHT22;2043;52.184;8.690;2023-08-06T09:24:50;20.80;93.00
4056;DHT22;2043;52.184;8.690;2023-08-06T09:27:17;20.70;94.10
4056;DHT22;2043;52.184;8.690;2023-08-06T09:29:45;20.70;94.10
4056;DHT22;2043;52.184;8.690;2023-08-06T09:32:13;20.80;93.90
4056;DHT22;2043;52.184;8.690;2023-08-06T09:34:41;20.80;93.50
4056;DHT22;2043;52.184;8.690;2023-08-06T09:37:09;20.90;93.40
4056;DHT22;2043;52.184;8.690;2023-08-06T09:39:39;21.00;92.80
4056;DHT22;2043;52.184;8.690;2023-08-06T09:42:07;21.00;91.50
4056;DHT22;2043;52.184;8.690;2023-08-06T09:44:34;21.00;91.80
4056;DHT22;2043;52.184;8.690;2023-08-06T09:47:03;21.20;93.40
4056;DHT22;2043;52.184;8.690;2023-08-06T09:52:00;21.60;93.60
4056;DHT22;2043;52.184;8.690;2023-08-06T09:54:28;21.90;92.30
4056;DHT22;2043;52.184;8.690;2023-08-06T09:56:57;22.10;91.70
4056;DHT22;2043;52.184;8.690;2023-08-06T09:59:24;22.10;91.80
4056;DHT22;2043;52.184;8.690;2023-08-06T10:01:51;21.90;90.10
4056;DHT22;2043;52.184;8.690;2023-08-06T10:04:20;21.80;90.80
4056;DHT22;2043;52.184;8.690;2023-08-06T10:06:52;22.00;89.40
4056;DHT22;2043;52.184;8.690;2023-08-06T10:09:20;22.40;89.00
4056;DHT22;2043;52.184;8.690;2023-08-06T10:11:51;22.70;88.10
4056;DHT22;2043;52.184;8.690;2023-08-06T10:14:24;23.00;86.20
4056;DHT22;2043;52.184;8.690;2023-08-06T10:16:53;23.20;87.10
4056;DHT22;2043;52.184;8.690;2023-08-06T10:19:21;23.20;85.30
4056;DHT22;2043;52.184;8.690;2023-08-06T10:22:11;22.90;86.20
4056;DHT22;2043;52.184;8.690;2023-08-06T10:27:35;23.20;91.10
4056;DHT22;2043;52.184;8.690;2023-08-06T10:30:25;23.60;86.80
4056;DHT22;2043;52.184;8.690;2023-08-06T10:32:53;24.20;85.20
4056;DHT22;2043;52.184;8.690;2023-08-06T10:35:43;24.50;83.90
4056;DHT22;2043;52.184;8.690;2023-08-06T10:38:25;24.20;85.00
4056;DHT22;2043;52.184;8.690;2023-08-06T10:43:26;24.50;84.30
4056;DHT22;2043;52.184;8.690;2023-08-06T10:45:54;24.50;83.20
4056;DHT22;2043;52.184;8.690;2023-08-06T10:48:34;24.60;85.70
4056;DHT22;2043;52.184;8.690;2023-08-06T10:51:01;24.80;84.20
4056;DHT22;2043;52.184;8.690;2023-08-06T10:53:29;24.30;84.30
4056;DHT22;2043;52.184;8.690;2023-08-06T10:56:00;23.80;85.30
4056;DHT22;2043;52.184;8.690;2023-08-06T10:58:33;23.90;84.50
4056;DHT22;2043;52.184;8.690;2023-08-06T11:01:01;24.40;83.70
4056;DHT22;2043;52.184;8.690;2023-08-06T11:03:28;24.80;83.60
4056;DHT22;2043;52.184;8.690;2023-08-06T11:05:55;25.10;83.60
4056;DHT22;2043;52.184;8.690;2023-08-06T11:08:27;25.00;82.70
4056;DHT22;2043;52.184;8.690;2023-08-06T11:10:54;24.70;82.00
4056;DHT22;2043;52.184;8.690;2023-08-06T11:13:29;24.10;82.80
4056;DHT22;2043;52.184;8.690;2023-08-06T11:15:57;23.90;83.00
4056;DHT22;2043;52.184;8.690;2023-08-06T11:18:25;24.10;83.10
4056;DHT22;2043;52.184;8.690;2023-08-06T11:20:51;24.10;82.60
4056;DHT22;2043;52.184;8.690;2023-08-06T11:23:18;24.20;83.60
4056;DHT22;2043;52.184;8.690;2023-08-06T11:25:45;24.20;83.70
4056;DHT22;2043;52.184;8.690;2023-08-06T11:28:12;23.90;82.80
4056;DHT22;2043;52.184;8.690;2023-08-06T11:30:40;23.90;83.50
4056;DHT22;2043;52.184;8.690;2023-08-06T11:33:07;23.80;83.30
4056;DHT22;2043;52.184;8.690;2023-08-06T11:35:37;24.30;83.20
4056;DHT22;2043;52.184;8.690;2023-08-06T11:38:05;24.30;83.10
4056;DHT22;2043;52.184;8.690;2023-08-06T11:40:32;24.90;83.20
4056;DHT22;2043;52.184;8.690;2023-08-06T11:43:00;25.10;80.80
4056;DHT22;2043;52.184;8.690;2023-08-06T11:45:27;25.20;81.30
4056;DHT22;2043;52.184;8.690;2023-08-06T11:47:54;25.10;80.70
4056;DHT22;2043;52.184;8.690;2023-08-06T11:50:25;25.10;82.50
4056;DHT22;2043;52.184;8.690;2023-08-06T11:52:57;25.30;80.00
4056;DHT22;2043;52.184;8.690;2023-08-06T11:55:26;25.60;81.50
4056;DHT22;2043;52.184;8.690;2023-08-06T11:57:53;25.70;81.90
4056;DHT22;2043;52.184;8.690;2023-08-06T12:00:22;25.60;78.70
4056;DHT22;2043;52.184;8.690;2023-08-06T12:02:50;25.90;80.50
4056;DHT22;2043;52.184;8.690;2023-08-06T12:05:21;26.20;80.40
4056;DHT22;2043;52.184;8.690;2023-08-06T12:07:52;26.00;78.50
4056;DHT22;2043;52.184;8.690;2023-08-06T12:10:21;26.00;79.80
4056;DHT22;2043;52.184;8.690;2023-08-06T12:12:49;25.90;78.80
4056;DHT22;2043;52.184;8.690;2023-08-06T12:15:17;25.90;77.60
4056;DHT22;2043;52.184;8.690;2023-08-06T12:17:44;25.70;77.60
4056;DHT22;2043;52.184;8.690;2023-08-06T12:20:11;25.40;80.50
4056;DHT22;2043;52.184;8.690;2023-08-06T12:22:38;25.50;79.80
4056;DHT22;2043;52.184;8.690;2023-08-06T12:25:09;25.30;79.80
4056;DHT22;2043;52.184;8.690;2023-08-06T12:27:40;25.20;80.60
4056;DHT22;2043;52.184;8.690;2023-08-06T12:30:08;25.10;81.30
4056;DHT22;2043;52.184;8.690;2023-08-06T12:32:36;25.00;82.30
4056;DHT22;2043;52.184;8.690;2023-08-06T12:35:04;24.30;83.60
4056;DHT22;2043;52.184;8.690;2023-08-06T12:37:34;24.30;84.00
4056;DHT22;2043;52.184;8.690;2023-08-06T12:40:01;24.20;83.90
4056;DHT22;2043;52.184;8.690;2023-08-06T12:42:49;24.20;83.60
4056;DHT22;2043;52.184;8.690;2023-08-06T12:45:17;24.20;83.60
4056;DHT22;2043;52.184;8.690;2023-08-06T12:47:44;24.60;83.50
4056;DHT22;2043;52.184;8.690;2023-08-06T12:50:11;24.90;81.90
4056;DHT22;2043;52.184;8.690;2023-08-06T12:52:38;25.50;81.20
4056;DHT22;2043;52.184;8.690;2023-08-06T12:55:05;25.50;80.80
4056;DHT22;2043;52.184;8.690;2023-08-06T12:57:32;25.80;79.40
4056;DHT22;2043;52.184;8.690;2023-08-06T13:00:21;25.60;80.20
4056;DHT22;2043;52.184;8.690;2023-08-06T13:02:50;25.20;79.80
4056;DHT22;2043;52.184;8.690;2023-08-06T13:05:17;24.90;81.40
4056;DHT22;2043;52.184;8.690;2023-08-06T13:07:44;24.80;79.70
4056;DHT22;2043;52.184;8.690;2023-08-06T13:12:38;25.60;80.10
4056;DHT22;2043;52.184;8.690;2023-08-06T13:15:06;26.10;78.70
4056;DHT22;2043;52.184;8.690;2023-08-06T13:17:33;25.50;79.00
4056;DHT22;2043;52.184;8.690;2023-08-06T13:20:02;25.40;79.20
4056;DHT22;2043;52.184;8.690;2023-08-06T13:22:29;25.10;79.80
4056;DHT22;2043;52.184;8.690;2023-08-06T13:24:56;24.50;79.90
4056;DHT22;2043;52.184;8.690;2023-08-06T13:27:23;24.50;80.10
4056;DHT22;2043;52.184;8.690;2023-08-06T13:29:50;24.50;80.80
4056;DHT22;2043;52.184;8.690;2023-08-06T13:32:17;24.20;82.80
4056;DHT22;2043;52.184;8.690;2023-08-06T13:34:44;24.10;82.50
4056;DHT22;2043;52.184;8.690;2023-08-06T13:37:11;24.10;83.30
4056;DHT22;2043;52.184;8.690;2023-08-06T13:39:38;23.80;84.30
4056;DHT22;2043;52.184;8.690;2023-08-06T13:42:05;23.20;85.80
4056;DHT22;2043;52.184;8.690;2023-08-06T13:44:32;23.10;89.60
4056;DHT22;2043;52.184;8.690;2023-08-06T13:47:02;23.10;89.60
4056;DHT22;2043;52.184;8.690;2023-08-06T13:49:29;23.10;86.80
4056;DHT22;2043;52.184;8.690;2023-08-06T13:51:56;23.10;86.70
4056;DHT22;2043;52.184;8.690;2023-08-06T13:54:41;23.00;88.70
4056;DHT22;2043;52.184;8.690;2023-08-06T13:59:36;22.50;95.50
4056;DHT22;2043;52.184;8.690;2023-08-06T14:04:31;22.50;99.60
4056;DHT22;2043;52.184;8.690;2023-08-06T14:06:58;22.00;98.90
4056;DHT22;2043;52.184;8.690;2023-08-06T14:09:25;21.70;97.30
4056;DHT22;2043;52.184;8.690;2023-08-06T14:11:53;21.40;98.70
4056;DHT22;2043;52.184;8.690;2023-08-06T14:14:20;21.40;99.80
4056;DHT22;2043;52.184;8.690;2023-08-06T14:16:53;21.30;98.00
4056;DHT22;2043;52.184;8.690;2023-08-06T14:19:21;21.30;98.00
4056;DHT22;2043;52.184;8.690;2023-08-06T14:21:49;21.30;99.10
4056;DHT22;2043;52.184;8.690;2023-08-06T14:24:18;21.30;97.30
4056;DHT22;2043;52.184;8.690;2023-08-06T14:26:46;21.20;97.40
4056;DHT22;2043;52.184;8.690;2023-08-06T14:29:13;21.40;98.70
4056;DHT22;2043;52.184;8.690;2023-08-06T14:31:41;21.20;98.10
4056;DHT22;2043;52.184;8.690;2023-08-06T14:34:08;21.00;99.90
4056;DHT22;2043;52.184;8.690;2023-08-06T14:36:35;21.00;99.90
4056;DHT22;2043;52.184;8.690;2023-08-06T14:39:02;20.90;99.30
4056;DHT22;2043;52.184;8.690;2023-08-06T14:41:29;20.70;99.40
4056;DHT22;2043;52.184;8.690;2023-08-06T14:43:56;20.70;99.70
4056;DHT22;2043;52.184;8.690;2023-08-06T14:46:23;20.60;99.90
4056;DHT22;2043;52.184;8.690;2023-08-06T14:48:51;20.30;99.90
4056;DHT22;2043;52.184;8.690;2023-08-06T14:51:18;20.20;99.90
4056;DHT22;2043;52.184;8.690;2023-08-06T14:53:48;19.90;99.70
4056;DHT22;2043;52.184;8.690;2023-08-06T14:56:15;19.80;99.80
4056;DHT22;2043;52.184;8.690;2023-08-06T14:58:42;19.30;96.60
4056;DHT22;2043;52.184;8.690;2023-08-06T15:01:09;19.10;97.40
4056;DHT22;2043;52.184;8.690;2023-08-06T15:06:05;19.10;99.90
4056;DHT22;2043;52.184;8.690;2023-08-06T15:08:32;19.00;99.90
4056;DHT22;2043;52.184;8.690;2023-08-06T15:13:29;19.10;99.90
4056;DHT22;2043;52.184;8.690;2023-08-06T15:15:57;19.00;99.90
4056;DHT22;2043;52.184;8.690;2023-08-06T15:18:24;19.00;99.90
4056;DHT22;2043;52.184;8.690;2023-08-06T15:20:50;19.00;99.90
4056;DHT22;2043;52.184;8.690;2023-08-06T15:28:14;18.60;99.90
4056;DHT22;2043;52.184;8.690;2023-08-06T15:30:50;18.40;99.90
4056;DHT22;2043;52.184;8.690;2023-08-06T15:33:18;18.30;99.90
4056;DHT22;2043;52.184;8.690;2023-08-06T15:35:48;18.20;99.90
4056;DHT22;2043;52.184;8.690;2023-08-06T15:38:16;18.10;99.90
4056;DHT22;2043;52.184;8.690;2023-08-06T15:40:43;18.20;99.90
4056;DHT22;2043;52.184;8.690;2023-08-06T15:43:12;18.20;99.90
4056;DHT22;2043;52.184;8.690;2023-08-06T15:45:40;18.30;99.90
4056;DHT22;2043;52.184;8.690;2023-08-06T15:48:08;18.20;99.90
4056;DHT22;2043;52.184;8.690;2023-08-06T15:50:38;18.10;99.90
4056;DHT22;2043;52.184;8.690;2023-08-06T15:53:06;18.20;99.90
4056;DHT22;2043;52.184;8.690;2023-08-06T15:55:33;18.20;99.90
4056;DHT22;2043;52.184;8.690;2023-08-06T15:58:04;18.10;99.90
4056;DHT22;2043;52.184;8.690;2023-08-06T16:00:32;18.00;99.90
4056;DHT22;2043;52.184;8.690;2023-08-06T16:02:59;17.90;99.90
4056;DHT22;2043;52.184;8.690;2023-08-06T16:05:26;17.50;99.90
4056;DHT22;2043;52.184;8.690;2023-08-06T16:10:21;17.60;99.90
4056;DHT22;2043;52.184;8.690;2023-08-06T16:15:16;17.50;99.90
4056;DHT22;2043;52.184;8.690;2023-08-06T16:17:46;17.50;99.90
4056;DHT22;2043;52.184;8.690;2023-08-06T16:22:42;17.50;99.90
4056;DHT22;2043;52.184;8.690;2023-08-06T16:25:09;17.60;99.90
4056;DHT22;2043;52.184;8.690;2023-08-06T16:27:39;17.70;99.90
4056;DHT22;2043;52.184;8.690;2023-08-06T16:30:07;17.80;99.90
4056;DHT22;2043;52.184;8.690;2023-08-06T16:32:36;17.80;99.90
4056;DHT22;2043;52.184;8.690;2023-08-06T16:35:03;17.80;99.90
4056;DHT22;2043;52.184;8.690;2023-08-06T16:39:59;17.80;99.90
4056;DHT22;2043;52.184;8.690;2023-08-06T16:42:26;17.60;99.90
4056;DHT22;2043;52.184;8.690;2023-08-06T16:47:20;16.80;99.90
4056;DHT22;2043;52.184;8.690;2023-08-06T16:49:48;16.70;99.90
4056;DHT22;2043;52.184;8.690;2023-08-06T16:52:15;16.60;99.90
4056;DHT22;2043;52.184;8.690;2023-08-06T16:54:42;16.60;99.90
4056;DHT22;2043;52.184;8.690;2023-08-06T16:57:09;16.60;99.90
4056;DHT22;2043;52.184;8.690;2023-08-06T17:04:32;16.30;99.90
4056;DHT22;2043;52.184;8.690;2023-08-06T17:07:00;16.30;99.90
4056;DHT22;2043;52.184;8.690;2023-08-06T17:09:29;16.40;99.90
4056;DHT22;2043;52.184;8.690;2023-08-06T17:11:56;16.30;99.90